sensor_id;sensor_type;location;lat;lon;timestamp;P1;durP1;ratioP1;P2;durP2;ratioP2
6638;SDS011;3355;52.882;8.430;2022-12-18T00:01:57;25.73;;;13.57;;
6638;SDS011;3355;52.882;8.430;2022-12-18T00:04:34;25.37;;;13.63;;
6638;SDS011;3355;52.882;8.430;2022-12-18T00:07:01;22.10;;;12.13;;
6638;SDS011;3355;52.882;8.430;2022-12-18T00:09:28;24.70;;;14.77;;
6638;SDS011;3355;52.882;8.430;2022-12-18T00:11:56;22.37;;;13.03;;
6638;SDS011;3355;52.882;8.430;2022-12-18T00:14:23;28.40;;;14.10;;
6638;SDS011;3355;52.882;8.430;2022-12-18T00:16:50;20.53;;;12.63;;
6638;SDS011;3355;52.882;8.430;2022-12-18T00:19:17;25.73;;;13.93;;
6638;SDS011;3355;52.882;8.430;2022-12-18T00:21:44;23.50;;;13.17;;
6638;SDS011;3355;52.882;8.430;2022-12-18T00:24:11;32.10;;;14.47;;
6638;SDS011;3355;52.882;8.430;2022-12-18T00:26:38;27.73;;;13.40;;
6638;SDS011;3355;52.882;8.430;2022-12-18T00:29:09;23.03;;;13.20;;
6638;SDS011;3355;52.882;8.430;2022-12-18T00:31:39;22.03;;;12.60;;
6638;SDS011;3355;52.882;8.430;2022-12-18T00:34:06;28.13;;;14.03;;
6638;SDS011;3355;52.882;8.430;2022-12-18T00:36:33;21.13;;;13.93;;
6638;SDS011;3355;52.882;8.430;2022-12-18T00:39:01;28.53;;;14.63;;
6638;SDS011;3355;52.882;8.430;2022-12-18T00:41:29;27.37;;;16.17;;
6638;SDS011;3355;52.882;8.430;2022-12-18T00:44:16;22.73;;;12.67;;
6638;SDS011;3355;52.882;8.430;2022-12-18T00:46:45;27.17;;;15.40;;
6638;SDS011;3355;52.882;8.430;2022-12-18T00:49:12;20.67;;;14.60;;
6638;SDS011;3355;52.882;8.430;2022-12-18T00:51:40;20.30;;;12.20;;
6638;SDS011;3355;52.882;8.430;2022-12-18T00:54:06;29.13;;;14.53;;
6638;SDS011;3355;52.882;8.430;2022-12-18T00:56:34;27.80;;;14.80;;
6638;SDS011;3355;52.882;8.430;2022-12-18T00:59:01;26.47;;;13.77;;
6638;SDS011;3355;52.882;8.430;2022-12-18T01:01:29;22.00;;;13.70;;
6638;SDS011;3355;52.882;8.430;2022-12-18T01:03:57;25.30;;;15.57;;
6638;SDS011;3355;52.882;8.430;2022-12-18T01:06:24;31.63;;;14.83;;
6638;SDS011;3355;52.882;8.430;2022-12-18T01:08:50;22.43;;;12.37;;
6638;SDS011;3355;52.882;8.430;2022-12-18T01:11:17;22.23;;;14.20;;
6638;SDS011;3355;52.882;8.430;2022-12-18T01:13:44;24.13;;;13.80;;
6638;SDS011;3355;52.882;8.430;2022-12-18T01:16:11;22.00;;;13.13;;
6638;SDS011;3355;52.882;8.430;2022-12-18T01:18:39;23.93;;;12.07;;
6638;SDS011;3355;52.882;8.430;2022-12-18T01:21:06;25.03;;;13.60;;
6638;SDS011;3355;52.882;8.430;2022-12-18T01:23:34;21.97;;;13.70;;
6638;SDS011;3355;52.882;8.430;2022-12-18T01:26:03;23.07;;;12.37;;
6638;SDS011;3355;52.882;8.430;2022-12-18T01:28:31;21.30;;;12.57;;
6638;SDS011;3355;52.882;8.430;2022-12-18T01:30:57;23.90;;;13.97;;
6638;SDS011;3355;52.882;8.430;2022-12-18T01:33:29;25.17;;;15.10;;
6638;SDS011;3355;52.882;8.430;2022-12-18T01:35:57;28.70;;;14.03;;
6638;SDS011;3355;52.882;8.430;2022-12-18T01:38:23;22.97;;;12.07;;
6638;SDS011;3355;52.882;8.430;2022-12-18T01:40:56;22.87;;;12.80;;
6638;SDS011;3355;52.882;8.430;2022-12-18T01:46:15;21.10;;;12.50;;
6638;SDS011;3355;52.882;8.430;2022-12-18T01:48:42;23.00;;;12.70;;
6638;SDS011;3355;52.882;8.430;2022-12-18T01:51:10;20.97;;;13.70;;
6638;SDS011;3355;52.882;8.430;2022-12-18T01:53:39;21.43;;;13.03;;
6638;SDS011;3355;52.882;8.430;2022-12-18T01:56:07;22.30;;;12.50;;
6638;SDS011;3355;52.882;8.430;2022-12-18T01:58:35;22.40;;;12.90;;
6638;SDS011;3355;52.882;8.430;2022-12-18T02:01:05;20.93;;;12.43;;
6638;SDS011;3355;52.882;8.430;2022-12-18T02:03:31;21.40;;;12.80;;
6638;SDS011;3355;52.882;8.430;2022-12-18T02:05:59;15.70;;;11.77;;
6638;SDS011;3355;52.882;8.430;2022-12-18T02:08:30;22.27;;;12.00;;
6638;SDS011;3355;52.882;8.430;2022-12-18T02:11:02;24.10;;;12.80;;
6638;SDS011;3355;52.882;8.430;2022-12-18T02:13:34;20.63;;;12.23;;
6638;SDS011;3355;52.882;8.430;2022-12-18T02:16:05;20.30;;;11.17;;
6638;SDS011;3355;52.882;8.430;2022-12-18T02:18:35;24.03;;;13.10;;
6638;SDS011;3355;52.882;8.430;2022-12-18T02:21:06;17.97;;;11.60;;
6638;SDS011;3355;52.882;8.430;2022-12-18T02:23:47;17.97;;;10.53;;
6638;SDS011;3355;52.882;8.430;2022-12-18T02:26:20;18.60;;;11.90;;
6638;SDS011;3355;52.882;8.430;2022-12-18T02:28:51;15.27;;;10.63;;
6638;SDS011;3355;52.882;8.430;2022-12-18T02:31:20;20.87;;;11.07;;
6638;SDS011;3355;52.882;8.430;2022-12-18T02:33:49;19.07;;;11.40;;
6638;SDS011;3355;52.882;8.430;2022-12-18T02:36:17;19.03;;;13.60;;
6638;SDS011;3355;52.882;8.430;2022-12-18T02:38:45;18.23;;;10.70;;
6638;SDS011;3355;52.882;8.430;2022-12-18T02:41:12;15.03;;;10.13;;
6638;SDS011;3355;52.882;8.430;2022-12-18T02:43:41;18.83;;;10.40;;
6638;SDS011;3355;52.882;8.430;2022-12-18T02:46:24;16.53;;;10.43;;
6638;SDS011;3355;52.882;8.430;2022-12-18T02:48:57;14.20;;;9.90;;
6638;SDS011;3355;52.882;8.430;2022-12-18T02:51:30;18.27;;;10.77;;
6638;SDS011;3355;52.882;8.430;2022-12-18T02:54:00;19.63;;;9.20;;
6638;SDS011;3355;52.882;8.430;2022-12-18T02:56:33;19.30;;;11.30;;
6638;SDS011;3355;52.882;8.430;2022-12-18T02:59:04;14.87;;;10.90;;
6638;SDS011;3355;52.882;8.430;2022-12-18T03:01:33;17.77;;;9.90;;
6638;SDS011;3355;52.882;8.430;2022-12-18T03:04:07;19.63;;;11.97;;
6638;SDS011;3355;52.882;8.430;2022-12-18T03:06:37;16.60;;;9.70;;
6638;SDS011;3355;52.882;8.430;2022-12-18T03:09:07;18.23;;;10.80;;
6638;SDS011;3355;52.882;8.430;2022-12-18T03:11:36;15.83;;;9.67;;
6638;SDS011;3355;52.882;8.430;2022-12-18T03:14:25;16.97;;;11.00;;
6638;SDS011;3355;52.882;8.430;2022-12-18T03:16:53;16.80;;;10.23;;
6638;SDS011;3355;52.882;8.430;2022-12-18T03:19:22;20.47;;;11.37;;
6638;SDS011;3355;52.882;8.430;2022-12-18T03:21:53;17.10;;;10.07;;
6638;SDS011;3355;52.882;8.430;2022-12-18T03:24:21;16.80;;;10.00;;
6638;SDS011;3355;52.882;8.430;2022-12-18T03:26:49;17.60;;;10.97;;
6638;SDS011;3355;52.882;8.430;2022-12-18T03:29:21;14.10;;;10.93;;
6638;SDS011;3355;52.882;8.430;2022-12-18T03:31:53;15.20;;;10.50;;
6638;SDS011;3355;52.882;8.430;2022-12-18T03:34:23;17.97;;;11.40;;
6638;SDS011;3355;52.882;8.430;2022-12-18T03:36:51;19.07;;;11.23;;
6638;SDS011;3355;52.882;8.430;2022-12-18T03:39:18;16.93;;;9.70;;
6638;SDS011;3355;52.882;8.430;2022-12-18T03:41:47;15.10;;;9.73;;
6638;SDS011;3355;52.882;8.430;2022-12-18T03:44:18;17.77;;;11.10;;
6638;SDS011;3355;52.882;8.430;2022-12-18T03:46:51;16.73;;;9.47;;
6638;SDS011;3355;52.882;8.430;2022-12-18T03:49:25;15.33;;;9.03;;
6638;SDS011;3355;52.882;8.430;2022-12-18T03:51:54;14.20;;;10.33;;
6638;SDS011;3355;52.882;8.430;2022-12-18T03:54:24;23.10;;;10.37;;
6638;SDS011;3355;52.882;8.430;2022-12-18T03:56:53;16.80;;;9.93;;
6638;SDS011;3355;52.882;8.430;2022-12-18T03:59:23;15.03;;;9.87;;
6638;SDS011;3355;52.882;8.430;2022-12-18T04:01:50;19.27;;;10.30;;
6638;SDS011;3355;52.882;8.430;2022-12-18T04:04:19;17.33;;;9.90;;
6638;SDS011;3355;52.882;8.430;2022-12-18T04:06:48;15.97;;;9.40;;
6638;SDS011;3355;52.882;8.430;2022-12-18T04:09:16;15.90;;;9.70;;
6638;SDS011;3355;52.882;8.430;2022-12-18T04:11:43;13.17;;;9.00;;
6638;SDS011;3355;52.882;8.430;2022-12-18T04:14:11;16.13;;;10.20;;
6638;SDS011;3355;52.882;8.430;2022-12-18T04:16:38;15.30;;;10.03;;
6638;SDS011;3355;52.882;8.430;2022-12-18T04:19:05;13.67;;;8.60;;
6638;SDS011;3355;52.882;8.430;2022-12-18T04:21:32;15.90;;;8.90;;
6638;SDS011;3355;52.882;8.430;2022-12-18T04:23:59;13.27;;;8.27;;
6638;SDS011;3355;52.882;8.430;2022-12-18T04:26:26;15.83;;;8.57;;
6638;SDS011;3355;52.882;8.430;2022-12-18T04:28:53;14.17;;;9.30;;
6638;SDS011;3355;52.882;8.430;2022-12-18T04:31:19;15.03;;;9.13;;
6638;SDS011;3355;52.882;8.430;2022-12-18T04:33:46;12.67;;;7.10;;
6638;SDS011;3355;52.882;8.430;2022-12-18T04:36:12;13.37;;;8.53;;
6638;SDS011;3355;52.882;8.430;2022-12-18T04:38:40;13.80;;;7.27;;
6638;SDS011;3355;52.882;8.430;2022-12-18T04:41:07;17.90;;;7.50;;
6638;SDS011;3355;52.882;8.430;2022-12-18T04:43:34;8.50;;;6.90;;
6638;SDS011;3355;52.882;8.430;2022-12-18T04:46:01;12.57;;;7.53;;
6638;SDS011;3355;52.882;8.430;2022-12-18T04:48:28;14.43;;;7.83;;
6638;SDS011;3355;52.882;8.430;2022-12-18T04:50:55;14.93;;;8.60;;
6638;SDS011;3355;52.882;8.430;2022-12-18T04:53:22;10.60;;;7.20;;
6638;SDS011;3355;52.882;8.430;2022-12-18T04:55:49;14.30;;;7.90;;
6638;SDS011;3355;52.882;8.430;2022-12-18T04:58:16;10.30;;;7.27;;
6638;SDS011;3355;52.882;8.430;2022-12-18T05:00:43;10.77;;;7.50;;
6638;SDS011;3355;52.882;8.430;2022-12-18T05:03:09;11.50;;;6.60;;
6638;SDS011;3355;52.882;8.430;2022-12-18T05:05:36;11.27;;;7.30;;
6638;SDS011;3355;52.882;8.430;2022-12-18T05:08:04;11.53;;;7.60;;
6638;SDS011;3355;52.882;8.430;2022-12-18T05:10:32;11.67;;;6.77;;
6638;SDS011;3355;52.882;8.430;2022-12-18T05:13:01;9.87;;;7.60;;
6638;SDS011;3355;52.882;8.430;2022-12-18T05:15:29;11.80;;;7.93;;
6638;SDS011;3355;52.882;8.430;2022-12-18T05:17:58;13.50;;;7.33;;
6638;SDS011;3355;52.882;8.430;2022-12-18T05:20:25;10.50;;;7.13;;
6638;SDS011;3355;52.882;8.430;2022-12-18T05:22:54;14.20;;;8.00;;
6638;SDS011;3355;52.882;8.430;2022-12-18T05:25:21;11.67;;;6.50;;
6638;SDS011;3355;52.882;8.430;2022-12-18T05:27:50;11.00;;;6.13;;
6638;SDS011;3355;52.882;8.430;2022-12-18T05:30:18;13.13;;;8.30;;
6638;SDS011;3355;52.882;8.430;2022-12-18T05:32:45;9.97;;;6.77;;
6638;SDS011;3355;52.882;8.430;2022-12-18T05:35:11;10.43;;;7.50;;
6638;SDS011;3355;52.882;8.430;2022-12-18T05:37:38;13.53;;;6.10;;
6638;SDS011;3355;52.882;8.430;2022-12-18T05:40:05;9.80;;;6.97;;
6638;SDS011;3355;52.882;8.430;2022-12-18T05:42:32;11.97;;;7.53;;
6638;SDS011;3355;52.882;8.430;2022-12-18T05:45:00;10.50;;;7.50;;
6638;SDS011;3355;52.882;8.430;2022-12-18T05:47:29;12.70;;;8.00;;
6638;SDS011;3355;52.882;8.430;2022-12-18T05:49:57;12.97;;;9.40;;
6638;SDS011;3355;52.882;8.430;2022-12-18T05:52:24;12.73;;;8.10;;
6638;SDS011;3355;52.882;8.430;2022-12-18T05:54:52;16.40;;;9.23;;
6638;SDS011;3355;52.882;8.430;2022-12-18T05:57:20;16.93;;;11.43;;
6638;SDS011;3355;52.882;8.430;2022-12-18T05:59:48;19.67;;;13.07;;
6638;SDS011;3355;52.882;8.430;2022-12-18T06:02:16;19.50;;;11.50;;
6638;SDS011;3355;52.882;8.430;2022-12-18T06:04:47;18.03;;;13.10;;
6638;SDS011;3355;52.882;8.430;2022-12-18T06:07:15;18.60;;;12.73;;
6638;SDS011;3355;52.882;8.430;2022-12-18T06:09:43;10.63;;;7.60;;
6638;SDS011;3355;52.882;8.430;2022-12-18T06:12:10;10.03;;;7.10;;
6638;SDS011;3355;52.882;8.430;2022-12-18T06:14:41;12.03;;;6.20;;
6638;SDS011;3355;52.882;8.430;2022-12-18T06:17:09;10.00;;;6.17;;
6638;SDS011;3355;52.882;8.430;2022-12-18T06:19:36;10.00;;;6.00;;
6638;SDS011;3355;52.882;8.430;2022-12-18T06:22:05;9.43;;;6.10;;
6638;SDS011;3355;52.882;8.430;2022-12-18T06:24:33;7.97;;;5.43;;
6638;SDS011;3355;52.882;8.430;2022-12-18T06:27:00;10.07;;;5.60;;
6638;SDS011;3355;52.882;8.430;2022-12-18T06:29:28;12.50;;;6.00;;
6638;SDS011;3355;52.882;8.430;2022-12-18T06:31:55;8.20;;;5.23;;
6638;SDS011;3355;52.882;8.430;2022-12-18T06:34:23;9.80;;;6.50;;
6638;SDS011;3355;52.882;8.430;2022-12-18T06:36:50;10.30;;;5.47;;
6638;SDS011;3355;52.882;8.430;2022-12-18T06:39:19;8.90;;;5.07;;
6638;SDS011;3355;52.882;8.430;2022-12-18T06:41:46;9.23;;;6.80;;
6638;SDS011;3355;52.882;8.430;2022-12-18T06:44:14;9.30;;;5.80;;
6638;SDS011;3355;52.882;8.430;2022-12-18T06:46:41;8.10;;;5.63;;
6638;SDS011;3355;52.882;8.430;2022-12-18T06:49:07;10.30;;;6.60;;
6638;SDS011;3355;52.882;8.430;2022-12-18T06:51:34;9.67;;;7.07;;
6638;SDS011;3355;52.882;8.430;2022-12-18T06:54:01;10.03;;;5.93;;
6638;SDS011;3355;52.882;8.430;2022-12-18T06:56:29;9.07;;;6.40;;
6638;SDS011;3355;52.882;8.430;2022-12-18T06:58:56;11.10;;;7.10;;
6638;SDS011;3355;52.882;8.430;2022-12-18T07:01:22;9.40;;;5.90;;
6638;SDS011;3355;52.882;8.430;2022-12-18T07:03:51;9.40;;;5.73;;
6638;SDS011;3355;52.882;8.430;2022-12-18T07:06:19;10.70;;;6.10;;
6638;SDS011;3355;52.882;8.430;2022-12-18T07:08:47;8.63;;;5.43;;
6638;SDS011;3355;52.882;8.430;2022-12-18T07:11:14;10.13;;;5.50;;
6638;SDS011;3355;52.882;8.430;2022-12-18T07:13:43;7.47;;;4.70;;
6638;SDS011;3355;52.882;8.430;2022-12-18T07:16:10;8.30;;;5.77;;
6638;SDS011;3355;52.882;8.430;2022-12-18T07:18:38;11.33;;;5.57;;
6638;SDS011;3355;52.882;8.430;2022-12-18T07:21:05;9.20;;;5.80;;
6638;SDS011;3355;52.882;8.430;2022-12-18T07:23:33;10.33;;;5.77;;
6638;SDS011;3355;52.882;8.430;2022-12-18T07:26:01;10.27;;;6.37;;
6638;SDS011;3355;52.882;8.430;2022-12-18T07:28:28;8.60;;;5.90;;
6638;SDS011;3355;52.882;8.430;2022-12-18T07:30:56;9.07;;;5.90;;
6638;SDS011;3355;52.882;8.430;2022-12-18T07:33:24;11.70;;;5.87;;
6638;SDS011;3355;52.882;8.430;2022-12-18T07:35:50;8.60;;;5.60;;
6638;SDS011;3355;52.882;8.430;2022-12-18T07:38:17;6.93;;;5.23;;
6638;SDS011;3355;52.882;8.430;2022-12-18T07:40:47;9.47;;;5.60;;
6638;SDS011;3355;52.882;8.430;2022-12-18T07:43:19;12.30;;;6.73;;
6638;SDS011;3355;52.882;8.430;2022-12-18T07:45:49;8.13;;;5.60;;
6638;SDS011;3355;52.882;8.430;2022-12-18T07:48:18;8.83;;;5.37;;
6638;SDS011;3355;52.882;8.430;2022-12-18T07:50:47;9.50;;;6.30;;
6638;SDS011;3355;52.882;8.430;2022-12-18T07:53:14;9.70;;;5.80;;
6638;SDS011;3355;52.882;8.430;2022-12-18T07:55:42;10.80;;;6.63;;
6638;SDS011;3355;52.882;8.430;2022-12-18T07:58:09;8.70;;;5.23;;
6638;SDS011;3355;52.882;8.430;2022-12-18T08:00:38;9.00;;;5.50;;
6638;SDS011;3355;52.882;8.430;2022-12-18T08:03:05;9.03;;;5.07;;
6638;SDS011;3355;52.882;8.430;2022-12-18T08:05:34;8.30;;;5.00;;
6638;SDS011;3355;52.882;8.430;2022-12-18T08:08:01;6.60;;;4.80;;
6638;SDS011;3355;52.882;8.430;2022-12-18T08:10:29;8.10;;;4.60;;
6638;SDS011;3355;52.882;8.430;2022-12-18T08:12:55;10.97;;;4.90;;
6638;SDS011;3355;52.882;8.430;2022-12-18T08:15:23;10.17;;;5.33;;
6638;SDS011;3355;52.882;8.430;2022-12-18T08:17:50;7.67;;;5.30;;
6638;SDS011;3355;52.882;8.430;2022-12-18T08:20:16;11.40;;;5.37;;
6638;SDS011;3355;52.882;8.430;2022-12-18T08:22:44;11.83;;;6.90;;
6638;SDS011;3355;52.882;8.430;2022-12-18T08:25:11;7.90;;;5.33;;
6638;SDS011;3355;52.882;8.430;2022-12-18T08:27:37;9.80;;;5.60;;
6638;SDS011;3355;52.882;8.430;2022-12-18T08:30:05;9.63;;;5.80;;
6638;SDS011;3355;52.882;8.430;2022-12-18T08:32:33;10.17;;;5.90;;
6638;SDS011;3355;52.882;8.430;2022-12-18T08:35:01;6.90;;;4.67;;
6638;SDS011;3355;52.882;8.430;2022-12-18T08:37:29;10.00;;;5.60;;
6638;SDS011;3355;52.882;8.430;2022-12-18T08:39:58;10.33;;;6.07;;
6638;SDS011;3355;52.882;8.430;2022-12-18T08:42:27;6.50;;;5.07;;
6638;SDS011;3355;52.882;8.430;2022-12-18T08:45:17;9.07;;;5.80;;
6638;SDS011;3355;52.882;8.430;2022-12-18T08:47:47;6.80;;;4.87;;
6638;SDS011;3355;52.882;8.430;2022-12-18T08:50:15;8.97;;;5.77;;
6638;SDS011;3355;52.882;8.430;2022-12-18T08:52:43;8.50;;;6.03;;
6638;SDS011;3355;52.882;8.430;2022-12-18T08:55:14;7.40;;;4.80;;
6638;SDS011;3355;52.882;8.430;2022-12-18T08:58:09;10.60;;;5.93;;
6638;SDS011;3355;52.882;8.430;2022-12-18T09:00:37;7.50;;;5.23;;
6638;SDS011;3355;52.882;8.430;2022-12-18T09:03:09;9.40;;;5.60;;
6638;SDS011;3355;52.882;8.430;2022-12-18T09:05:43;7.90;;;5.17;;
6638;SDS011;3355;52.882;8.430;2022-12-18T09:11:25;11.20;;;6.50;;
6638;SDS011;3355;52.882;8.430;2022-12-18T09:13:55;10.40;;;6.53;;
6638;SDS011;3355;52.882;8.430;2022-12-18T09:16:22;7.40;;;5.43;;
6638;SDS011;3355;52.882;8.430;2022-12-18T09:18:54;9.60;;;5.57;;
6638;SDS011;3355;52.882;8.430;2022-12-18T09:21:25;10.73;;;6.40;;
6638;SDS011;3355;52.882;8.430;2022-12-18T09:23:53;9.07;;;6.40;;
6638;SDS011;3355;52.882;8.430;2022-12-18T09:26:22;8.43;;;6.70;;
6638;SDS011;3355;52.882;8.430;2022-12-18T09:28:51;9.13;;;6.07;;
6638;SDS011;3355;52.882;8.430;2022-12-18T09:31:19;7.60;;;6.20;;
6638;SDS011;3355;52.882;8.430;2022-12-18T09:33:49;9.97;;;6.47;;
6638;SDS011;3355;52.882;8.430;2022-12-18T11:04:51;7.90;;;4.93;;
6638;SDS011;3355;52.882;8.430;2022-12-18T11:07:18;8.73;;;6.20;;
6638;SDS011;3355;52.882;8.430;2022-12-18T11:09:45;9.13;;;5.87;;
6638;SDS011;3355;52.882;8.430;2022-12-18T11:12:27;6.87;;;5.50;;
6638;SDS011;3355;52.882;8.430;2022-12-18T11:14:55;10.77;;;7.10;;
6638;SDS011;3355;52.882;8.430;2022-12-18T11:17:24;10.77;;;5.90;;
6638;SDS011;3355;52.882;8.430;2022-12-18T11:19:58;8.03;;;5.17;;
6638;SDS011;3355;52.882;8.430;2022-12-18T11:22:55;9.80;;;5.83;;
6638;SDS011;3355;52.882;8.430;2022-12-18T11:25:25;8.23;;;5.60;;
6638;SDS011;3355;52.882;8.430;2022-12-18T11:31:12;6.10;;;3.97;;
6638;SDS011;3355;52.882;8.430;2022-12-18T11:33:56;8.33;;;5.20;;
6638;SDS011;3355;52.882;8.430;2022-12-18T11:36:34;8.30;;;5.40;;
6638;SDS011;3355;52.882;8.430;2022-12-18T11:39:07;9.63;;;6.27;;
6638;SDS011;3355;52.882;8.430;2022-12-18T11:41:48;7.13;;;5.37;;
6638;SDS011;3355;52.882;8.430;2022-12-18T11:44:40;5.57;;;3.80;;
6638;SDS011;3355;52.882;8.430;2022-12-18T11:47:13;6.30;;;4.47;;
6638;SDS011;3355;52.882;8.430;2022-12-18T11:49:55;8.20;;;4.60;;
6638;SDS011;3355;52.882;8.430;2022-12-18T11:55:16;7.50;;;3.80;;
6638;SDS011;3355;52.882;8.430;2022-12-18T11:57:51;6.30;;;4.10;;
6638;SDS011;3355;52.882;8.430;2022-12-18T12:00:21;6.47;;;4.83;;
6638;SDS011;3355;52.882;8.430;2022-12-18T12:02:56;7.20;;;4.50;;
6638;SDS011;3355;52.882;8.430;2022-12-18T12:05:42;6.20;;;4.10;;
6638;SDS011;3355;52.882;8.430;2022-12-18T12:08:18;9.60;;;5.30;;
6638;SDS011;3355;52.882;8.430;2022-12-18T12:10:52;7.60;;;6.00;;
6638;SDS011;3355;52.882;8.430;2022-12-18T12:13:29;12.83;;;6.47;;
6638;SDS011;3355;52.882;8.430;2022-12-18T12:16:11;12.80;;;6.67;;
6638;SDS011;3355;52.882;8.430;2022-12-18T12:18:46;7.87;;;4.70;;
6638;SDS011;3355;52.882;8.430;2022-12-18T12:21:25;8.53;;;5.03;;
6638;SDS011;3355;52.882;8.430;2022-12-18T12:24:00;10.20;;;4.87;;
6638;SDS011;3355;52.882;8.430;2022-12-18T12:26:42;5.53;;;3.97;;
6638;SDS011;3355;52.882;8.430;2022-12-18T12:29:21;6.30;;;4.67;;
6638;SDS011;3355;52.882;8.430;2022-12-18T12:32:02;5.60;;;4.00;;
6638;SDS011;3355;52.882;8.430;2022-12-18T12:34:34;6.53;;;3.93;;
6638;SDS011;3355;52.882;8.430;2022-12-18T12:37:11;9.60;;;4.93;;
6638;SDS011;3355;52.882;8.430;2022-12-18T12:39:47;8.67;;;5.10;;
6638;SDS011;3355;52.882;8.430;2022-12-18T12:42:17;6.17;;;4.23;;
6638;SDS011;3355;52.882;8.430;2022-12-18T12:45:14;7.17;;;3.90;;
6638;SDS011;3355;52.882;8.430;2022-12-18T12:47:44;5.80;;;3.90;;
6638;SDS011;3355;52.882;8.430;2022-12-18T12:50:14;6.27;;;4.10;;
6638;SDS011;3355;52.882;8.430;2022-12-18T12:52:46;6.23;;;5.23;;
6638;SDS011;3355;52.882;8.430;2022-12-18T12:55:20;7.47;;;4.40;;
6638;SDS011;3355;52.882;8.430;2022-12-18T12:57:51;6.20;;;3.90;;
6638;SDS011;3355;52.882;8.430;2022-12-18T13:00:21;6.70;;;4.13;;
6638;SDS011;3355;52.882;8.430;2022-12-18T13:02:50;7.40;;;4.80;;
6638;SDS011;3355;52.882;8.430;2022-12-18T13:05:20;6.23;;;3.50;;
6638;SDS011;3355;52.882;8.430;2022-12-18T13:07:51;8.50;;;3.60;;
6638;SDS011;3355;52.882;8.430;2022-12-18T13:10:25;6.40;;;4.20;;
6638;SDS011;3355;52.882;8.430;2022-12-18T13:12:58;6.23;;;3.50;;
6638;SDS011;3355;52.882;8.430;2022-12-18T13:15:32;7.83;;;4.80;;
6638;SDS011;3355;52.882;8.430;2022-12-18T13:20:46;5.63;;;3.80;;
6638;SDS011;3355;52.882;8.430;2022-12-18T13:23:28;5.67;;;4.07;;
6638;SDS011;3355;52.882;8.430;2022-12-18T13:25:58;5.30;;;3.53;;
6638;SDS011;3355;52.882;8.430;2022-12-18T13:31:57;6.63;;;4.00;;
6638;SDS011;3355;52.882;8.430;2022-12-18T13:34:33;7.27;;;4.20;;
6638;SDS011;3355;52.882;8.430;2022-12-18T13:43:34;5.87;;;4.53;;
6638;SDS011;3355;52.882;8.430;2022-12-18T13:46:04;8.73;;;4.70;;
6638;SDS011;3355;52.882;8.430;2022-12-18T13:48:49;6.97;;;4.27;;
6638;SDS011;3355;52.882;8.430;2022-12-18T13:51:17;8.83;;;4.40;;
6638;SDS011;3355;52.882;8.430;2022-12-18T13:53:47;6.03;;;3.57;;
6638;SDS011;3355;52.882;8.430;2022-12-18T13:56:15;9.20;;;3.97;;
6638;SDS011;3355;52.882;8.430;2022-12-18T14:01:31;8.57;;;3.80;;
6638;SDS011;3355;52.882;8.430;2022-12-18T14:04:11;5.47;;;4.17;;
6638;SDS011;3355;52.882;8.430;2022-12-18T14:06:38;9.23;;;3.87;;
6638;SDS011;3355;52.882;8.430;2022-12-18T14:09:05;10.10;;;4.93;;
6638;SDS011;3355;52.882;8.430;2022-12-18T14:11:32;9.73;;;5.13;;
6638;SDS011;3355;52.882;8.430;2022-12-18T14:13:58;6.20;;;4.33;;
6638;SDS011;3355;52.882;8.430;2022-12-18T14:16:27;4.43;;;3.40;;
6638;SDS011;3355;52.882;8.430;2022-12-18T14:18:55;4.73;;;3.40;;
6638;SDS011;3355;52.882;8.430;2022-12-18T14:21:24;9.33;;;4.37;;
6638;SDS011;3355;52.882;8.430;2022-12-18T14:24:05;7.83;;;3.70;;
6638;SDS011;3355;52.882;8.430;2022-12-18T14:26:37;5.70;;;4.03;;
6638;SDS011;3355;52.882;8.430;2022-12-18T14:29:18;5.60;;;3.80;;
6638;SDS011;3355;52.882;8.430;2022-12-18T14:31:50;9.73;;;3.50;;
6638;SDS011;3355;52.882;8.430;2022-12-18T14:34:31;11.53;;;5.27;;
6638;SDS011;3355;52.882;8.430;2022-12-18T14:36:58;7.53;;;3.67;;
6638;SDS011;3355;52.882;8.430;2022-12-18T14:39:26;6.40;;;3.93;;
6638;SDS011;3355;52.882;8.430;2022-12-18T14:41:53;5.00;;;3.50;;
6638;SDS011;3355;52.882;8.430;2022-12-18T14:44:20;8.50;;;4.03;;
6638;SDS011;3355;52.882;8.430;2022-12-18T14:46:49;4.80;;;3.30;;
6638;SDS011;3355;52.882;8.430;2022-12-18T14:49:18;6.20;;;4.27;;
6638;SDS011;3355;52.882;8.430;2022-12-18T14:51:48;5.37;;;3.07;;
6638;SDS011;3355;52.882;8.430;2022-12-18T14:54:19;6.40;;;3.60;;
6638;SDS011;3355;52.882;8.430;2022-12-18T14:56:47;8.03;;;4.00;;
6638;SDS011;3355;52.882;8.430;2022-12-18T14:59:15;7.80;;;4.03;;
6638;SDS011;3355;52.882;8.430;2022-12-18T15:01:45;5.83;;;3.90;;
6638;SDS011;3355;52.882;8.430;2022-12-18T15:07:04;8.17;;;2.90;;
6638;SDS011;3355;52.882;8.430;2022-12-18T15:09:35;5.97;;;3.43;;
6638;SDS011;3355;52.882;8.430;2022-12-18T15:12:02;8.13;;;3.87;;
6638;SDS011;3355;52.882;8.430;2022-12-18T15:14:31;7.53;;;3.53;;
6638;SDS011;3355;52.882;8.430;2022-12-18T15:17:02;5.50;;;3.30;;
6638;SDS011;3355;52.882;8.430;2022-12-18T15:19:36;4.10;;;3.17;;
6638;SDS011;3355;52.882;8.430;2022-12-18T15:22:04;6.90;;;4.30;;
6638;SDS011;3355;52.882;8.430;2022-12-18T15:24:49;6.80;;;4.07;;
6638;SDS011;3355;52.882;8.430;2022-12-18T15:27:20;6.43;;;3.87;;
6638;SDS011;3355;52.882;8.430;2022-12-18T15:29:59;7.47;;;4.40;;
6638;SDS011;3355;52.882;8.430;2022-12-18T15:32:26;7.53;;;3.10;;
6638;SDS011;3355;52.882;8.430;2022-12-18T15:35:02;6.73;;;3.63;;
6638;SDS011;3355;52.882;8.430;2022-12-18T15:37:33;4.50;;;3.20;;
6638;SDS011;3355;52.882;8.430;2022-12-18T15:40:00;5.20;;;3.20;;
6638;SDS011;3355;52.882;8.430;2022-12-18T15:42:28;5.87;;;4.00;;
6638;SDS011;3355;52.882;8.430;2022-12-18T15:45:12;7.83;;;3.30;;
6638;SDS011;3355;52.882;8.430;2022-12-18T15:47:39;6.10;;;3.40;;
6638;SDS011;3355;52.882;8.430;2022-12-18T15:50:08;5.50;;;3.20;;
6638;SDS011;3355;52.882;8.430;2022-12-18T15:52:36;5.93;;;3.13;;
6638;SDS011;3355;52.882;8.430;2022-12-18T15:55:08;5.10;;;3.20;;
6638;SDS011;3355;52.882;8.430;2022-12-18T15:57:54;4.80;;;2.80;;
6638;SDS011;3355;52.882;8.430;2022-12-18T16:00:21;5.93;;;3.40;;
6638;SDS011;3355;52.882;8.430;2022-12-18T16:02:47;4.70;;;3.23;;
6638;SDS011;3355;52.882;8.430;2022-12-18T16:05:16;5.57;;;3.70;;
6638;SDS011;3355;52.882;8.430;2022-12-18T16:07:44;4.83;;;3.77;;
6638;SDS011;3355;52.882;8.430;2022-12-18T16:10:12;6.27;;;3.43;;
6638;SDS011;3355;52.882;8.430;2022-12-18T16:12:39;6.60;;;3.70;;
6638;SDS011;3355;52.882;8.430;2022-12-18T16:15:06;4.50;;;3.30;;
6638;SDS011;3355;52.882;8.430;2022-12-18T16:17:33;7.53;;;3.77;;
6638;SDS011;3355;52.882;8.430;2022-12-18T16:20:00;6.00;;;3.30;;
6638;SDS011;3355;52.882;8.430;2022-12-18T16:22:30;4.30;;;2.47;;
6638;SDS011;3355;52.882;8.430;2022-12-18T16:24:57;7.33;;;3.00;;
6638;SDS011;3355;52.882;8.430;2022-12-18T16:27:24;3.97;;;2.50;;
6638;SDS011;3355;52.882;8.430;2022-12-18T16:29:50;5.73;;;2.77;;
6638;SDS011;3355;52.882;8.430;2022-12-18T16:32:19;5.37;;;3.20;;
6638;SDS011;3355;52.882;8.430;2022-12-18T16:34:46;4.73;;;2.97;;
6638;SDS011;3355;52.882;8.430;2022-12-18T16:37:14;6.07;;;3.00;;
6638;SDS011;3355;52.882;8.430;2022-12-18T16:39:43;4.13;;;3.00;;
6638;SDS011;3355;52.882;8.430;2022-12-18T16:42:57;4.00;;;2.37;;
6638;SDS011;3355;52.882;8.430;2022-12-18T16:45:42;4.30;;;3.07;;
6638;SDS011;3355;52.882;8.430;2022-12-18T16:48:15;4.63;;;3.10;;
6638;SDS011;3355;52.882;8.430;2022-12-18T16:50:42;3.50;;;2.80;;
6638;SDS011;3355;52.882;8.430;2022-12-18T16:53:08;4.20;;;2.67;;
6638;SDS011;3355;52.882;8.430;2022-12-18T16:55:36;5.47;;;3.40;;
6638;SDS011;3355;52.882;8.430;2022-12-18T16:58:03;6.00;;;3.50;;
6638;SDS011;3355;52.882;8.430;2022-12-18T17:00:29;6.17;;;2.90;;
6638;SDS011;3355;52.882;8.430;2022-12-18T17:02:56;6.40;;;3.30;;
6638;SDS011;3355;52.882;8.430;2022-12-18T17:05:23;5.60;;;3.00;;
6638;SDS011;3355;52.882;8.430;2022-12-18T17:07:51;6.13;;;3.13;;
6638;SDS011;3355;52.882;8.430;2022-12-18T17:10:18;4.90;;;3.37;;
6638;SDS011;3355;52.882;8.430;2022-12-18T17:12:48;4.23;;;2.50;;
6638;SDS011;3355;52.882;8.430;2022-12-18T17:15:17;4.37;;;2.40;;
6638;SDS011;3355;52.882;8.430;2022-12-18T17:17:45;3.60;;;2.47;;
6638;SDS011;3355;52.882;8.430;2022-12-18T17:20:13;5.50;;;2.73;;
6638;SDS011;3355;52.882;8.430;2022-12-18T17:22:40;6.50;;;3.30;;